createdAt,value
2022-12-03T00:02:21.707Z,100.00
2022-12-03T00:04:48.625Z,100.00
2022-12-03T00:07:15.421Z,100.00
2022-12-03T00:09:42.855Z,100.00
2022-12-03T00:12:09.650Z,100.00
2022-12-03T00:14:41.246Z,100.00
2022-12-03T00:17:11.075Z,100.00
2022-12-03T00:19:37.781Z,100.00
2022-12-03T00:22:04.516Z,100.00
2022-12-03T00:24:31.259Z,100.00
2022-12-03T00:26:58.008Z,100.00
2022-12-03T00:29:24.748Z,100.00
2022-12-03T00:31:51.477Z,100.00
2022-12-03T00:34:18.324Z,100.00
2022-12-03T00:36:45.048Z,100.00
2022-12-03T00:39:11.773Z,100.00
2022-12-03T00:41:38.493Z,100.00
2022-12-03T00:44:05.478Z,100.00
2022-12-03T00:46:32.269Z,100.00
2022-12-03T00:48:59.128Z,100.00
2022-12-03T00:51:25.837Z,99.89
2022-12-03T00:53:52.581Z,99.75
2022-12-03T00:56:19.370Z,99.53
2022-12-03T00:58:46.659Z,99.61
2022-12-03T01:01:13.423Z,99.78
2022-12-03T01:03:40.289Z,99.90
2022-12-03T01:06:07.029Z,100.00
2022-12-03T01:08:33.748Z,100.00
2022-12-03T01:11:00.502Z,100.00
2022-12-03T01:13:27.453Z,100.00
2022-12-03T01:15:54.263Z,99.44
2022-12-03T01:18:21.019Z,99.22
2022-12-03T01:20:47.881Z,99.04
2022-12-03T01:23:14.596Z,98.91
2022-12-03T01:25:41.378Z,98.77
2022-12-03T01:28:08.141Z,98.42
2022-12-03T01:30:55.029Z,99.13
2022-12-03T01:33:21.798Z,99.26
2022-12-03T01:35:48.617Z,99.63
2022-12-03T01:38:15.349Z,99.61
2022-12-03T01:40:42.219Z,98.96
2022-12-03T01:43:08.996Z,98.24
2022-12-03T01:45:35.837Z,98.40
2022-12-03T01:48:02.591Z,98.75
2022-12-03T01:50:33.542Z,98.59
2022-12-03T01:53:03.263Z,98.75
2022-12-03T01:55:30.307Z,97.74
2022-12-03T01:58:00.867Z,98.03
2022-12-03T02:00:28.997Z,98.56
2022-12-03T02:03:00.105Z,99.21
2022-12-03T02:05:32.048Z,98.20
2022-12-03T02:10:32.934Z,97.79
2022-12-03T02:13:05.345Z,98.30
2022-12-03T02:15:32.478Z,98.43
2022-12-03T02:17:59.828Z,98.59
2022-12-03T02:20:26.693Z,98.82
2022-12-03T02:23:14.444Z,99.41
2022-12-03T02:25:41.232Z,99.56
2022-12-03T02:28:09.610Z,99.21
2022-12-03T02:30:37.111Z,99.08
2022-12-03T02:33:04.697Z,99.14
2022-12-03T02:35:35.269Z,98.48
2022-12-03T02:38:20.267Z,97.91
2022-12-03T02:40:50.282Z,97.72
2022-12-03T02:43:18.492Z,97.27
2022-12-03T02:45:49.624Z,97.98
2022-12-03T02:48:18.594Z,98.07
2022-12-03T02:50:52.690Z,98.13
2022-12-03T02:53:23.451Z,98.61
2022-12-03T02:55:51.609Z,99.17
2022-12-03T02:58:19.135Z,99.74
2022-12-03T03:00:46.739Z,99.14
2022-12-03T03:03:14.197Z,99.39
2022-12-03T03:05:41.684Z,98.80
2022-12-03T03:08:09.756Z,98.56
2022-12-03T03:10:39.780Z,98.38
2022-12-03T03:13:12.615Z,98.40
2022-12-03T03:15:40.897Z,98.92
2022-12-03T03:18:09.286Z,99.03
2022-12-03T03:20:37.169Z,99.15
2022-12-03T03:23:12.720Z,99.05
2022-12-03T03:25:43.964Z,99.55
2022-12-03T03:28:11.444Z,99.15
2022-12-03T03:30:39.720Z,99.26
2022-12-03T03:33:07.178Z,99.87
2022-12-03T03:35:34.180Z,99.96
2022-12-03T03:38:01.007Z,99.78
2022-12-03T03:40:28.612Z,100.00
2022-12-03T03:42:56.890Z,99.88
2022-12-03T03:45:28.873Z,99.74
2022-12-03T03:47:58.415Z,99.69
2022-12-03T03:50:28.562Z,99.62
2022-12-03T03:52:56.472Z,99.44
2022-12-03T03:55:23.630Z,99.56
2022-12-03T03:57:50.513Z,99.59
2022-12-03T04:00:17.925Z,99.49
2022-12-03T04:02:44.993Z,98.94
2022-12-03T04:05:17.671Z,98.77
2022-12-03T04:07:44.581Z,98.73
2022-12-03T04:10:33.944Z,98.83
2022-12-03T04:13:01.614Z,99.02
2022-12-03T04:15:28.564Z,99.09
2022-12-03T04:18:14.333Z,98.65
2022-12-03T04:20:41.066Z,99.00
2022-12-03T04:23:08.104Z,99.28
2022-12-03T04:25:53.487Z,98.64
2022-12-03T04:28:38.714Z,99.24
2022-12-03T04:31:25.729Z,99.47
2022-12-03T04:34:11.520Z,99.69
2022-12-03T04:36:38.713Z,99.67
2022-12-03T04:39:05.805Z,99.53
2022-12-03T04:41:32.530Z,99.62
2022-12-03T04:44:18.197Z,99.60
2022-12-03T04:46:44.954Z,100.00
2022-12-03T04:49:11.673Z,100.00
2022-12-03T04:51:38.420Z,100.00
2022-12-03T04:54:05.252Z,100.00
2022-12-03T04:56:31.993Z,100.00
2022-12-03T04:58:58.751Z,100.00
2022-12-03T05:01:25.519Z,100.00
2022-12-03T05:03:52.240Z,100.00
2022-12-03T05:06:19.014Z,100.00
2022-12-03T05:08:45.856Z,100.00
2022-12-03T05:11:12.566Z,100.00
2022-12-03T05:13:39.329Z,100.00
2022-12-03T05:16:06.608Z,100.00
2022-12-03T05:18:33.344Z,100.00
2022-12-03T05:21:00.082Z,100.00
2022-12-03T05:23:26.894Z,100.00
2022-12-03T05:25:53.809Z,100.00
2022-12-03T05:28:22.300Z,100.00
2022-12-03T05:30:49.171Z,100.00
2022-12-03T05:33:16.158Z,100.00
2022-12-03T05:35:43.471Z,100.00
2022-12-03T05:38:10.285Z,100.00
2022-12-03T05:40:37.120Z,100.00
2022-12-03T05:43:04.018Z,100.00
2022-12-03T05:45:35.690Z,100.00
2022-12-03T05:48:04.390Z,100.00
2022-12-03T05:50:36.329Z,100.00
2022-12-03T05:53:03.631Z,100.00
2022-12-03T05:55:30.447Z,100.00
2022-12-03T05:57:57.645Z,100.00
2022-12-03T06:00:31.630Z,100.00
2022-12-03T06:02:59.317Z,100.00
2022-12-03T06:05:28.248Z,100.00
2022-12-03T06:07:55.116Z,100.00
2022-12-03T06:10:24.943Z,100.00
2022-12-03T06:12:52.295Z,100.00
2022-12-03T06:15:20.306Z,100.00
2022-12-03T06:17:47.364Z,100.00
2022-12-03T06:20:18.955Z,100.00
2022-12-03T06:22:46.373Z,100.00
2022-12-03T06:25:13.875Z,100.00
2022-12-03T06:27:40.742Z,100.00
2022-12-03T06:30:09.056Z,100.00
2022-12-03T06:32:36.162Z,100.00
2022-12-03T06:35:03.482Z,100.00
2022-12-03T06:37:30.206Z,100.00
2022-12-03T06:39:56.938Z,100.00
2022-12-03T06:42:23.674Z,100.00
2022-12-03T06:44:50.443Z,100.00
2022-12-03T06:47:17.248Z,100.00
2022-12-03T06:49:44.070Z,100.00
2022-12-03T06:52:10.777Z,100.00
2022-12-03T06:54:37.482Z,100.00
2022-12-03T06:57:04.305Z,100.00
2022-12-03T06:59:34.187Z,100.00
2022-12-03T07:02:01.282Z,100.00
2022-12-03T07:04:29.224Z,100.00
2022-12-03T07:06:56.024Z,100.00
2022-12-03T07:09:22.824Z,100.00
2022-12-03T07:11:49.557Z,100.00
2022-12-03T07:14:17.340Z,100.00
2022-12-03T07:16:44.225Z,100.00
2022-12-03T07:19:11.354Z,100.00
2022-12-03T07:21:38.349Z,100.00
2022-12-03T07:24:05.760Z,100.00
2022-12-03T07:26:32.985Z,100.00
2022-12-03T07:29:00.146Z,100.00
2022-12-03T07:31:27.311Z,100.00
2022-12-03T07:33:54.245Z,100.00
2022-12-03T07:36:21.023Z,100.00
2022-12-03T07:38:47.859Z,100.00
2022-12-03T07:41:14.734Z,100.00
2022-12-03T07:43:41.452Z,100.00
2022-12-03T07:46:08.629Z,100.00
2022-12-03T07:48:35.451Z,100.00
2022-12-03T07:51:02.343Z,100.00
2022-12-03T07:53:29.192Z,100.00
2022-12-03T07:55:55.990Z,100.00
2022-12-03T07:58:22.761Z,100.00
2022-12-03T08:00:49.559Z,100.00
2022-12-03T08:03:16.331Z,100.00
2022-12-03T08:05:43.061Z,100.00
2022-12-03T08:10:43.728Z,100.00
2022-12-03T08:13:25.589Z,100.00
2022-12-03T08:15:52.939Z,100.00
2022-12-03T08:18:21.668Z,100.00
2022-12-03T08:20:51.898Z,100.00
2022-12-03T08:23:22.418Z,100.00
2022-12-03T08:25:51.543Z,100.00
2022-12-03T08:28:26.749Z,100.00
2022-12-03T08:31:21.050Z,100.00
2022-12-03T08:33:51.249Z,100.00
2022-12-03T08:36:26.282Z,100.00
2022-12-03T08:38:59.828Z,100.00
2022-12-03T08:41:46.433Z,100.00
2022-12-03T08:44:32.631Z,100.00
2022-12-03T08:47:16.962Z,100.00
2022-12-03T08:50:00.323Z,100.00
2022-12-03T08:52:34.873Z,100.00
2022-12-03T08:55:33.178Z,100.00
2022-12-03T08:57:59.996Z,100.00
2022-12-03T09:00:27.026Z,100.00
2022-12-03T09:02:59.949Z,100.00
2022-12-03T09:05:30.396Z,100.00
2022-12-03T09:07:57.229Z,100.00
2022-12-03T09:10:24.051Z,100.00
2022-12-03T09:12:50.850Z,100.00
2022-12-03T09:15:17.755Z,100.00
2022-12-03T09:17:44.562Z,100.00
2022-12-03T09:20:11.946Z,100.00
2022-12-03T09:22:38.660Z,100.00
2022-12-03T09:25:06.130Z,100.00
2022-12-03T09:27:32.910Z,100.00
2022-12-03T09:29:59.671Z,100.00
2022-12-03T09:32:26.465Z,100.00
2022-12-03T09:34:54.183Z,100.00
2022-12-03T09:37:22.291Z,100.00
2022-12-03T09:39:49.154Z,100.00
2022-12-03T09:42:16.211Z,100.00
2022-12-03T09:44:43.158Z,100.00
2022-12-03T09:47:10.111Z,100.00
2022-12-03T09:49:38.545Z,100.00
2022-12-03T09:52:06.680Z,100.00
2022-12-03T09:54:34.546Z,100.00
2022-12-03T09:57:04.378Z,100.00
2022-12-03T09:59:34.341Z,99.95
2022-12-03T10:02:03.044Z,99.79
2022-12-03T10:04:30.370Z,99.79
2022-12-03T10:06:59.178Z,100.00
2022-12-03T10:09:29.008Z,99.74
2022-12-03T10:11:57.750Z,100.00
2022-12-03T10:14:24.925Z,100.00
2022-12-03T10:16:52.075Z,99.89
2022-12-03T10:19:29.717Z,100.00
2022-12-03T10:21:56.464Z,100.00
2022-12-03T10:24:32.476Z,100.00
2022-12-03T10:27:24.592Z,100.00
2022-12-03T10:30:00.160Z,100.00
2022-12-03T10:32:40.795Z,100.00
2022-12-03T10:35:16.789Z,100.00
2022-12-03T10:38:22.449Z,99.85
2022-12-03T10:40:49.832Z,99.57
2022-12-03T10:43:19.498Z,99.41
2022-12-03T10:45:48.352Z,99.38
2022-12-03T10:48:26.354Z,98.42
2022-12-03T10:51:12.054Z,98.71
2022-12-03T10:53:40.640Z,98.97
2022-12-03T10:56:14.869Z,99.16
2022-12-03T10:58:42.348Z,99.61
2022-12-03T11:01:19.210Z,99.76
2022-12-03T11:03:46.741Z,99.18
2022-12-03T11:06:20.591Z,98.83
2022-12-03T11:08:56.822Z,99.13
2022-12-03T11:11:30.638Z,99.27
2022-12-03T11:14:05.036Z,99.11
2022-12-03T11:16:40.672Z,98.81
2022-12-03T11:19:13.473Z,99.75
2022-12-03T11:22:05.074Z,99.27
2022-12-03T11:24:35.037Z,99.06
2022-12-03T11:27:01.745Z,98.29
2022-12-03T11:29:49.208Z,97.90
2022-12-03T11:32:43.290Z,98.49
2022-12-03T11:35:37.975Z,98.45
2022-12-03T11:38:52.348Z,98.65
2022-12-03T11:41:22.743Z,98.28
2022-12-03T11:43:52.126Z,98.20
2022-12-03T11:46:23.188Z,98.49
2022-12-03T11:48:52.907Z,98.70
2022-12-03T11:51:23.839Z,98.12
2022-12-03T11:53:52.943Z,98.08
2022-12-03T11:56:30.444Z,98.35
2022-12-03T11:59:03.245Z,98.00
2022-12-03T12:01:39.091Z,98.52
2022-12-03T12:04:08.358Z,98.83
2022-12-03T12:06:43.774Z,99.16
2022-12-03T12:09:11.046Z,98.76
2022-12-03T12:11:41.492Z,99.68
2022-12-03T12:14:11.459Z,98.77
2022-12-03T12:16:55.339Z,98.81
2022-12-03T12:19:38.264Z,98.82
2022-12-03T12:22:24.266Z,99.44
2022-12-03T12:25:03.079Z,98.69
2022-12-03T12:27:49.468Z,97.81
2022-12-03T12:30:20.329Z,98.03
2022-12-03T12:33:00.856Z,98.04
2022-12-03T12:35:32.651Z,97.93
2022-12-03T12:38:08.837Z,97.52
2022-12-03T12:40:39.547Z,97.93
2022-12-03T12:43:24.386Z,98.18
2022-12-03T12:45:59.445Z,98.36
2022-12-03T12:48:31.781Z,98.86
2022-12-03T12:51:11.448Z,98.65
2022-12-03T12:53:40.465Z,98.16
2022-12-03T12:56:20.657Z,97.86
2022-12-03T12:58:47.478Z,97.99
2022-12-03T13:01:25.270Z,98.19
2022-12-03T13:03:53.446Z,97.79
2022-12-03T13:06:28.225Z,97.67
2022-12-03T13:08:55.737Z,97.47
2022-12-03T13:11:25.440Z,97.53
2022-12-03T13:13:52.734Z,97.28
2022-12-03T13:16:29.386Z,96.34
2022-12-03T13:18:58.791Z,96.11
2022-12-03T13:21:43.112Z,97.00
2022-12-03T13:24:32.740Z,95.81
2022-12-03T13:27:22.786Z,96.32
2022-12-03T13:30:03.688Z,96.65
2022-12-03T13:32:37.451Z,96.44
2022-12-03T13:35:13.734Z,96.63
2022-12-03T13:37:40.503Z,96.66
2022-12-03T13:40:36.473Z,96.97
2022-12-03T13:43:15.894Z,96.73
2022-12-03T13:45:47.345Z,96.43
2022-12-03T13:48:32.019Z,96.47
2022-12-03T13:51:14.319Z,97.42
2022-12-03T13:53:41.276Z,97.03
2022-12-03T13:56:29.709Z,97.88
2022-12-03T13:59:00.281Z,97.24
2022-12-03T14:01:28.103Z,96.83
2022-12-03T14:03:55.376Z,97.65
2022-12-03T14:06:23.701Z,98.42
2022-12-03T14:08:50.550Z,98.00
2022-12-03T14:11:36.180Z,98.13
2022-12-03T14:14:03.253Z,98.13
2022-12-03T14:16:30.027Z,97.23
2022-12-03T14:18:56.771Z,97.39
2022-12-03T14:21:23.578Z,98.15
2022-12-03T14:23:50.305Z,99.29
2022-12-03T14:26:17.072Z,100.00
2022-12-03T14:28:43.812Z,99.98
2022-12-03T14:31:10.524Z,99.89
2022-12-03T14:33:37.322Z,100.00
2022-12-03T14:36:04.302Z,99.93
2022-12-03T14:38:31.119Z,99.48
2022-12-03T14:40:57.849Z,100.00
2022-12-03T14:43:24.599Z,100.00
2022-12-03T14:45:51.726Z,100.00
2022-12-03T14:48:18.597Z,100.00
2022-12-03T14:50:45.366Z,100.00
2022-12-03T14:53:12.102Z,100.00
2022-12-03T14:55:38.816Z,100.00
2022-12-03T14:58:05.523Z,100.00
2022-12-03T15:00:32.259Z,100.00
2022-12-03T15:02:59.038Z,100.00
2022-12-03T15:05:28.835Z,100.00
2022-12-03T15:07:55.748Z,99.62
2022-12-03T15:10:22.588Z,99.11
2022-12-03T15:12:49.358Z,99.93
2022-12-03T15:15:16.237Z,100.00
2022-12-03T15:17:45.766Z,99.23
2022-12-03T15:20:13.284Z,99.73
2022-12-03T15:22:40.081Z,98.93
2022-12-03T15:25:07.858Z,99.61
2022-12-03T15:27:34.634Z,100.00
2022-12-03T15:30:01.358Z,99.95
2022-12-03T15:32:28.182Z,100.00
2022-12-03T15:34:54.908Z,100.00
2022-12-03T15:37:21.642Z,99.92
2022-12-03T15:39:49.566Z,99.89
2022-12-03T15:42:16.377Z,99.02
2022-12-03T15:44:43.130Z,98.93
2022-12-03T15:47:09.872Z,98.65
2022-12-03T15:49:36.674Z,98.22
2022-12-03T15:52:04.640Z,98.76
2022-12-03T15:54:31.413Z,99.40
2022-12-03T15:56:58.125Z,98.89
2022-12-03T15:59:25.601Z,98.62
2022-12-03T16:01:52.379Z,99.34
2022-12-03T16:04:19.135Z,100.00
2022-12-03T16:06:45.928Z,100.00
2022-12-03T16:09:12.674Z,100.00
2022-12-03T16:11:39.378Z,100.00
2022-12-03T16:14:06.162Z,100.00
2022-12-03T16:16:32.948Z,100.00
2022-12-03T16:18:59.785Z,100.00
2022-12-03T16:21:27.393Z,100.00
2022-12-03T16:23:55.578Z,100.00
2022-12-03T16:26:22.863Z,99.96
2022-12-03T16:28:49.652Z,100.00
2022-12-03T16:31:16.487Z,100.00
2022-12-03T16:33:43.304Z,99.93
2022-12-03T16:36:10.209Z,100.00
2022-12-03T16:38:36.976Z,99.59
2022-12-03T16:41:03.880Z,99.54
2022-12-03T16:43:30.777Z,99.71
2022-12-03T16:46:20.400Z,100.00
2022-12-03T16:48:48.335Z,100.00
2022-12-03T16:51:15.863Z,100.00
2022-12-03T16:53:42.882Z,100.00
2022-12-03T16:56:09.603Z,100.00
2022-12-03T16:58:36.521Z,100.00
2022-12-03T17:01:03.722Z,100.00
2022-12-03T17:03:33.822Z,100.00
2022-12-03T17:06:01.371Z,100.00
2022-12-03T17:08:28.520Z,100.00
2022-12-03T17:10:55.335Z,100.00
2022-12-03T17:13:23.359Z,100.00
2022-12-03T17:15:51.061Z,100.00
2022-12-03T17:18:17.853Z,100.00
2022-12-03T17:20:44.597Z,100.00
2022-12-03T17:23:12.013Z,100.00
2022-12-03T17:25:38.773Z,100.00
2022-12-03T17:28:05.662Z,100.00
2022-12-03T17:30:32.437Z,100.00
2022-12-03T17:32:59.159Z,100.00
2022-12-03T17:35:26.870Z,100.00
2022-12-03T17:37:53.561Z,100.00
2022-12-03T17:40:20.588Z,100.00
2022-12-03T17:42:47.357Z,100.00
2022-12-03T17:45:14.258Z,100.00
2022-12-03T17:47:41.280Z,100.00
2022-12-03T17:50:09.168Z,100.00
2022-12-03T17:52:36.054Z,100.00
2022-12-03T17:55:11.708Z,100.00
2022-12-03T17:57:39.914Z,100.00
2022-12-03T18:00:07.704Z,100.00
2022-12-03T18:02:34.496Z,100.00
2022-12-03T18:05:01.227Z,100.00
2022-12-03T18:07:28.247Z,100.00
2022-12-03T18:09:55.378Z,100.00
2022-12-03T18:12:22.364Z,100.00
2022-12-03T18:14:49.114Z,100.00
2022-12-03T18:17:15.941Z,100.00
2022-12-03T18:19:43.127Z,100.00
2022-12-03T18:22:10.005Z,100.00
2022-12-03T18:24:37.517Z,100.00
2022-12-03T18:27:04.407Z,100.00
2022-12-03T18:29:31.190Z,100.00
2022-12-03T18:31:58.031Z,100.00
2022-12-03T18:34:24.938Z,100.00
2022-12-03T18:36:51.744Z,100.00
2022-12-03T18:39:28.309Z,100.00
2022-12-03T18:41:55.089Z,100.00
2022-12-03T18:44:22.054Z,100.00
2022-12-03T18:46:53.806Z,100.00
2022-12-03T18:49:20.999Z,100.00
2022-12-03T18:51:48.551Z,100.00
2022-12-03T18:54:15.894Z,100.00
2022-12-03T18:56:42.680Z,100.00
2022-12-03T18:59:09.825Z,100.00
2022-12-03T19:01:36.616Z,100.00
2022-12-03T19:04:03.627Z,100.00
2022-12-03T19:06:30.676Z,100.00
2022-12-03T19:08:57.779Z,100.00
2022-12-03T19:11:25.108Z,100.00
2022-12-03T19:13:52.163Z,100.00
2022-12-03T19:16:19.266Z,100.00
2022-12-03T19:18:46.279Z,100.00
2022-12-03T19:21:16.026Z,100.00
2022-12-03T19:24:04.133Z,100.00
2022-12-03T19:26:30.535Z,100.00
2022-12-03T19:28:57.482Z,100.00
2022-12-03T19:31:24.286Z,100.00
2022-12-03T19:33:51.919Z,100.00
2022-12-03T19:36:27.326Z,100.00
2022-12-03T19:38:58.553Z,100.00
2022-12-03T19:41:28.214Z,100.00
2022-12-03T19:43:56.568Z,100.00
2022-12-03T19:46:28.932Z,100.00
2022-12-03T19:48:55.811Z,100.00
2022-12-03T19:51:37.732Z,100.00
2022-12-03T19:54:07.452Z,100.00
2022-12-03T19:56:35.001Z,100.00
2022-12-03T19:59:01.836Z,100.00
2022-12-03T20:01:32.735Z,100.00
2022-12-03T20:04:02.221Z,100.00
2022-12-03T20:06:33.854Z,100.00
2022-12-03T20:09:12.169Z,100.00
2022-12-03T20:11:41.447Z,100.00
2022-12-03T20:14:11.506Z,100.00
2022-12-03T20:16:38.342Z,100.00
2022-12-03T20:19:08.060Z,100.00
2022-12-03T20:21:36.704Z,100.00
2022-12-03T20:24:04.471Z,100.00
2022-12-03T20:26:31.904Z,100.00
2022-12-03T20:28:59.270Z,100.00
2022-12-03T20:31:30.113Z,100.00
2022-12-03T20:34:03.778Z,100.00
2022-12-03T20:36:32.121Z,100.00
2022-12-03T20:39:05.687Z,100.00
2022-12-03T20:41:36.029Z,100.00
2022-12-03T20:44:03.442Z,100.00
2022-12-03T20:46:31.826Z,100.00
2022-12-03T20:48:59.597Z,100.00
2022-12-03T20:51:30.564Z,100.00
2022-12-03T20:53:59.345Z,100.00
2022-12-03T20:56:31.474Z,100.00
2022-12-03T20:59:04.993Z,100.00
2022-12-03T21:01:31.888Z,100.00
2022-12-03T21:03:59.191Z,100.00
2022-12-03T21:06:30.032Z,100.00
2022-12-03T21:08:59.322Z,100.00
2022-12-03T21:11:31.872Z,100.00
2022-12-03T21:14:00.220Z,100.00
2022-12-03T21:16:59.144Z,100.00
2022-12-03T21:19:18.354Z,100.00
2022-12-03T21:21:45.191Z,100.00
2022-12-03T21:24:13.616Z,100.00
2022-12-03T21:26:40.945Z,100.00
2022-12-03T21:29:07.885Z,100.00
2022-12-03T21:31:35.752Z,100.00
2022-12-03T21:34:03.225Z,100.00
2022-12-03T21:36:30.015Z,100.00
2022-12-03T21:38:56.803Z,100.00
2022-12-03T21:41:23.535Z,100.00
2022-12-03T21:43:50.309Z,100.00
2022-12-03T21:47:12.278Z,100.00
2022-12-03T21:49:04.264Z,100.00
2022-12-03T21:51:31.074Z,100.00
2022-12-03T21:53:57.848Z,100.00
2022-12-03T21:56:24.836Z,100.00
2022-12-03T21:58:51.564Z,100.00
2022-12-03T22:01:21.976Z,100.00
2022-12-03T22:03:49.294Z,100.00
2022-12-03T22:06:17.092Z,100.00
2022-12-03T22:08:44.254Z,100.00
2022-12-03T22:11:17.804Z,100.00
2022-12-03T22:13:45.807Z,100.00
2022-12-03T22:16:17.174Z,100.00
2022-12-03T22:18:44.641Z,100.00
2022-12-03T22:21:14.832Z,100.00
2022-12-03T22:23:41.740Z,100.00
2022-12-03T22:26:13.160Z,100.00
2022-12-03T22:28:44.467Z,100.00
2022-12-03T22:31:12.008Z,100.00
2022-12-03T22:33:39.548Z,100.00
2022-12-03T22:36:19.729Z,100.00
2022-12-03T22:38:47.981Z,100.00
2022-12-03T22:41:15.080Z,100.00
2022-12-03T22:43:42.111Z,100.00
2022-12-03T22:46:12.769Z,100.00
2022-12-03T22:48:41.960Z,100.00
2022-12-03T22:51:22.290Z,100.00
2022-12-03T22:53:57.933Z,100.00
2022-12-03T22:56:26.104Z,100.00
2022-12-03T22:58:52.845Z,100.00
2022-12-03T23:01:26.884Z,100.00
2022-12-03T23:03:54.200Z,100.00
2022-12-03T23:06:21.759Z,100.00
2022-12-03T23:08:48.986Z,100.00
2022-12-03T23:11:16.594Z,100.00
2022-12-03T23:13:43.507Z,100.00
2022-12-03T23:16:22.519Z,100.00
2022-12-03T23:18:49.628Z,100.00
2022-12-03T23:21:29.059Z,100.00
2022-12-03T23:23:56.752Z,100.00
2022-12-03T23:26:23.516Z,100.00
2022-12-03T23:28:50.295Z,100.00
2022-12-03T23:31:25.201Z,100.00
2022-12-03T23:33:52.793Z,100.00
2022-12-03T23:36:20.130Z,100.00
2022-12-03T23:38:47.213Z,100.00
2022-12-03T23:41:18.933Z,100.00
2022-12-03T23:43:45.872Z,100.00
2022-12-03T23:46:19.150Z,100.00
2022-12-03T23:48:46.202Z,100.00
2022-12-03T23:51:19.878Z,100.00
2022-12-03T23:53:47.212Z,100.00
2022-12-03T23:56:19.969Z,100.00
2022-12-03T23:58:47.082Z,100.00
